sensor_id;sensor_type;location;lat;lon;timestamp;P1;durP1;ratioP1;P2;durP2;ratioP2
16579;SDS011;8402;51.466;6.806;2023-08-01T00:01:42;2.80;;;1.85;;
16579;SDS011;8402;51.466;6.806;2023-08-01T00:04:12;3.38;;;1.73;;
16579;SDS011;8402;51.466;6.806;2023-08-01T00:06:45;3.47;;;1.60;;
16579;SDS011;8402;51.466;6.806;2023-08-01T00:09:15;1.98;;;1.15;;
16579;SDS011;8402;51.466;6.806;2023-08-01T00:11:45;1.52;;;1.00;;
16579;SDS011;8402;51.466;6.806;2023-08-01T00:14:15;2.63;;;1.33;;
16579;SDS011;8402;51.466;6.806;2023-08-01T00:16:46;1.65;;;1.10;;
16579;SDS011;8402;51.466;6.806;2023-08-01T00:19:17;3.55;;;1.05;;
16579;SDS011;8402;51.466;6.806;2023-08-01T00:21:52;2.58;;;1.13;;
16579;SDS011;8402;51.466;6.806;2023-08-01T00:24:22;1.52;;;0.93;;
16579;SDS011;8402;51.466;6.806;2023-08-01T00:26:52;2.78;;;1.05;;
16579;SDS011;8402;51.466;6.806;2023-08-01T00:29:22;2.80;;;1.13;;
16579;SDS011;8402;51.466;6.806;2023-08-01T00:31:52;1.40;;;1.08;;
16579;SDS011;8402;51.466;6.806;2023-08-01T00:34:22;2.10;;;1.00;;
16579;SDS011;8402;51.466;6.806;2023-08-01T00:36:55;1.73;;;1.10;;
16579;SDS011;8402;51.466;6.806;2023-08-01T00:39:28;2.85;;;1.20;;
16579;SDS011;8402;51.466;6.806;2023-08-01T00:42:00;1.58;;;1.10;;
16579;SDS011;8402;51.466;6.806;2023-08-01T00:44:30;4.53;;;1.30;;
16579;SDS011;8402;51.466;6.806;2023-08-01T00:47:00;1.65;;;1.10;;
16579;SDS011;8402;51.466;6.806;2023-08-01T00:49:31;2.60;;;1.20;;
16579;SDS011;8402;51.466;6.806;2023-08-01T00:52:04;5.30;;;1.33;;
16579;SDS011;8402;51.466;6.806;2023-08-01T00:54:35;2.15;;;1.10;;
16579;SDS011;8402;51.466;6.806;2023-08-01T00:57:05;4.20;;;1.40;;
16579;SDS011;8402;51.466;6.806;2023-08-01T00:59:36;1.90;;;1.10;;
16579;SDS011;8402;51.466;6.806;2023-08-01T01:02:06;1.63;;;1.20;;
16579;SDS011;8402;51.466;6.806;2023-08-01T01:04:38;2.25;;;1.10;;
16579;SDS011;8402;51.466;6.806;2023-08-01T01:07:11;2.13;;;1.30;;
16579;SDS011;8402;51.466;6.806;2023-08-01T01:09:41;3.10;;;1.52;;
16579;SDS011;8402;51.466;6.806;2023-08-01T01:12:11;2.90;;;1.55;;
16579;SDS011;8402;51.466;6.806;2023-08-01T01:14:41;2.20;;;1.48;;
16579;SDS011;8402;51.466;6.806;2023-08-01T01:17:11;4.25;;;2.00;;
16579;SDS011;8402;51.466;6.806;2023-08-01T01:19:42;6.18;;;2.33;;
16579;SDS011;8402;51.466;6.806;2023-08-01T01:22:14;30.23;;;3.15;;
16579;SDS011;8402;51.466;6.806;2023-08-01T01:24:46;8.32;;;2.90;;
16579;SDS011;8402;51.466;6.806;2023-08-01T01:27:17;4.80;;;2.38;;
16579;SDS011;8402;51.466;6.806;2023-08-01T01:29:47;6.50;;;3.33;;
16579;SDS011;8402;51.466;6.806;2023-08-01T01:32:18;3.53;;;1.98;;
16579;SDS011;8402;51.466;6.806;2023-08-01T01:34:49;2.35;;;1.70;;
16579;SDS011;8402;51.466;6.806;2023-08-01T01:37:22;2.33;;;1.20;;
16579;SDS011;8402;51.466;6.806;2023-08-01T01:39:52;2.47;;;0.93;;
16579;SDS011;8402;51.466;6.806;2023-08-01T01:42:22;2.25;;;1.30;;
16579;SDS011;8402;51.466;6.806;2023-08-01T01:44:52;1.90;;;1.55;;
16579;SDS011;8402;51.466;6.806;2023-08-01T01:47:22;5.23;;;1.60;;
16579;SDS011;8402;51.466;6.806;2023-08-01T01:49:52;2.95;;;1.50;;
16579;SDS011;8402;51.466;6.806;2023-08-01T01:52:24;3.90;;;1.20;;
16579;SDS011;8402;51.466;6.806;2023-08-01T01:54:54;3.15;;;1.60;;
16579;SDS011;8402;51.466;6.806;2023-08-01T01:57:24;4.72;;;1.52;;
16579;SDS011;8402;51.466;6.806;2023-08-01T01:59:54;3.95;;;1.30;;
16579;SDS011;8402;51.466;6.806;2023-08-01T02:02:24;2.17;;;1.55;;
16579;SDS011;8402;51.466;6.806;2023-08-01T02:04:54;4.72;;;1.50;;
16579;SDS011;8402;51.466;6.806;2023-08-01T02:07:26;3.97;;;1.60;;
16579;SDS011;8402;51.466;6.806;2023-08-01T02:09:56;3.47;;;1.63;;
16579;SDS011;8402;51.466;6.806;2023-08-01T02:12:26;6.00;;;1.80;;
16579;SDS011;8402;51.466;6.806;2023-08-01T02:14:58;5.32;;;2.00;;
16579;SDS011;8402;51.466;6.806;2023-08-01T02:17:28;2.40;;;1.88;;
16579;SDS011;8402;51.466;6.806;2023-08-01T02:19:58;3.35;;;2.20;;
16579;SDS011;8402;51.466;6.806;2023-08-01T02:22:30;3.27;;;2.40;;
16579;SDS011;8402;51.466;6.806;2023-08-01T02:25:00;3.03;;;2.17;;
16579;SDS011;8402;51.466;6.806;2023-08-01T02:27:30;4.32;;;2.63;;
16579;SDS011;8402;51.466;6.806;2023-08-01T02:30:00;3.67;;;2.60;;
16579;SDS011;8402;51.466;6.806;2023-08-01T02:32:31;5.30;;;2.88;;
16579;SDS011;8402;51.466;6.806;2023-08-01T02:35:01;5.45;;;3.28;;
16579;SDS011;8402;51.466;6.806;2023-08-01T02:37:34;4.38;;;3.30;;
16579;SDS011;8402;51.466;6.806;2023-08-01T02:40:04;8.23;;;3.58;;
16579;SDS011;8402;51.466;6.806;2023-08-01T02:42:37;7.63;;;3.83;;
16579;SDS011;8402;51.466;6.806;2023-08-01T02:45:08;5.38;;;3.53;;
16579;SDS011;8402;51.466;6.806;2023-08-01T02:47:38;6.75;;;3.88;;
16579;SDS011;8402;51.466;6.806;2023-08-01T02:50:08;5.40;;;3.95;;
16579;SDS011;8402;51.466;6.806;2023-08-01T02:52:41;7.72;;;3.88;;
16579;SDS011;8402;51.466;6.806;2023-08-01T02:55:11;5.57;;;4.40;;
16579;SDS011;8402;51.466;6.806;2023-08-01T02:57:41;7.57;;;4.88;;
16579;SDS011;8402;51.466;6.806;2023-08-01T03:00:11;9.13;;;5.07;;
16579;SDS011;8402;51.466;6.806;2023-08-01T03:02:41;8.43;;;5.50;;
16579;SDS011;8402;51.466;6.806;2023-08-01T03:05:11;8.30;;;6.10;;
16579;SDS011;8402;51.466;6.806;2023-08-01T03:07:43;12.07;;;6.82;;
16579;SDS011;8402;51.466;6.806;2023-08-01T03:10:14;12.73;;;7.18;;
16579;SDS011;8402;51.466;6.806;2023-08-01T03:13:01;9.55;;;6.50;;
16579;SDS011;8402;51.466;6.806;2023-08-01T03:15:31;15.10;;;8.30;;
16579;SDS011;8402;51.466;6.806;2023-08-01T03:18:01;15.65;;;8.35;;
16579;SDS011;8402;51.466;6.806;2023-08-01T03:20:31;16.23;;;8.13;;
16579;SDS011;8402;51.466;6.806;2023-08-01T03:23:04;14.90;;;8.77;;
16579;SDS011;8402;51.466;6.806;2023-08-01T03:25:34;13.18;;;8.70;;
16579;SDS011;8402;51.466;6.806;2023-08-01T03:28:04;15.68;;;8.50;;
16579;SDS011;8402;51.466;6.806;2023-08-01T03:30:35;13.52;;;8.50;;
16579;SDS011;8402;51.466;6.806;2023-08-01T03:33:05;18.07;;;8.73;;
16579;SDS011;8402;51.466;6.806;2023-08-01T03:35:35;17.90;;;9.00;;
16579;SDS011;8402;51.466;6.806;2023-08-01T03:38:08;18.42;;;8.65;;
16579;SDS011;8402;51.466;6.806;2023-08-01T03:40:38;13.90;;;8.67;;
16579;SDS011;8402;51.466;6.806;2023-08-01T03:43:08;19.23;;;8.77;;
16579;SDS011;8402;51.466;6.806;2023-08-01T03:45:38;16.17;;;8.30;;
16579;SDS011;8402;51.466;6.806;2023-08-01T03:48:09;15.00;;;7.30;;
16579;SDS011;8402;51.466;6.806;2023-08-01T03:50:38;18.48;;;7.68;;
16579;SDS011;8402;51.466;6.806;2023-08-01T03:53:11;17.53;;;7.37;;
16579;SDS011;8402;51.466;6.806;2023-08-01T03:55:41;13.80;;;8.13;;
16579;SDS011;8402;51.466;6.806;2023-08-01T03:58:13;11.53;;;7.73;;
16579;SDS011;8402;51.466;6.806;2023-08-01T04:00:43;16.20;;;8.03;;
16579;SDS011;8402;51.466;6.806;2023-08-01T04:03:13;19.77;;;8.40;;
16579;SDS011;8402;51.466;6.806;2023-08-01T04:05:43;13.23;;;8.17;;
16579;SDS011;8402;51.466;6.806;2023-08-01T04:08:15;18.27;;;8.50;;
16579;SDS011;8402;51.466;6.806;2023-08-01T04:10:45;18.00;;;9.00;;
16579;SDS011;8402;51.466;6.806;2023-08-01T04:13:16;15.53;;;8.80;;
16579;SDS011;8402;51.466;6.806;2023-08-01T04:15:46;17.87;;;8.03;;
16579;SDS011;8402;51.466;6.806;2023-08-01T04:18:17;17.80;;;8.33;;
16579;SDS011;8402;51.466;6.806;2023-08-01T04:20:46;21.20;;;9.17;;
16579;SDS011;8402;51.466;6.806;2023-08-01T04:23:19;17.37;;;9.00;;
16579;SDS011;8402;51.466;6.806;2023-08-01T04:25:49;17.10;;;9.20;;
16579;SDS011;8402;51.466;6.806;2023-08-01T04:28:20;17.77;;;9.57;;
16579;SDS011;8402;51.466;6.806;2023-08-01T04:30:50;15.77;;;9.87;;
16579;SDS011;8402;51.466;6.806;2023-08-01T04:33:20;19.07;;;10.13;;
16579;SDS011;8402;51.466;6.806;2023-08-01T04:35:50;16.73;;;9.47;;
16579;SDS011;8402;51.466;6.806;2023-08-01T04:38:22;19.67;;;11.00;;
16579;SDS011;8402;51.466;6.806;2023-08-01T04:40:52;24.50;;;11.03;;
16579;SDS011;8402;51.466;6.806;2023-08-01T04:43:22;21.53;;;11.33;;
16579;SDS011;8402;51.466;6.806;2023-08-01T04:45:52;20.23;;;10.93;;
16579;SDS011;8402;51.466;6.806;2023-08-01T04:48:21;21.23;;;10.57;;
16579;SDS011;8402;51.466;6.806;2023-08-01T04:50:51;20.47;;;10.63;;
16579;SDS011;8402;51.466;6.806;2023-08-01T04:53:24;21.60;;;11.60;;
16579;SDS011;8402;51.466;6.806;2023-08-01T04:55:54;19.40;;;10.17;;
16579;SDS011;8402;51.466;6.806;2023-08-01T04:58:23;25.10;;;11.60;;
16579;SDS011;8402;51.466;6.806;2023-08-01T05:00:53;17.90;;;10.50;;
16579;SDS011;8402;51.466;6.806;2023-08-01T05:03:23;20.53;;;11.57;;
16579;SDS011;8402;51.466;6.806;2023-08-01T05:05:53;20.03;;;10.53;;
16579;SDS011;8402;51.466;6.806;2023-08-01T05:08:26;25.90;;;11.48;;
16579;SDS011;8402;51.466;6.806;2023-08-01T05:10:56;20.20;;;10.73;;
16579;SDS011;8402;51.466;6.806;2023-08-01T05:13:26;20.23;;;10.57;;
16579;SDS011;8402;51.466;6.806;2023-08-01T05:15:56;24.67;;;11.87;;
16579;SDS011;8402;51.466;6.806;2023-08-01T05:18:25;28.60;;;11.77;;
16579;SDS011;8402;51.466;6.806;2023-08-01T05:20:55;24.10;;;12.13;;
16579;SDS011;8402;51.466;6.806;2023-08-01T05:23:28;23.03;;;11.60;;
16579;SDS011;8402;51.466;6.806;2023-08-01T05:25:58;20.23;;;11.27;;
16579;SDS011;8402;51.466;6.806;2023-08-01T05:28:27;22.93;;;12.83;;
16579;SDS011;8402;51.466;6.806;2023-08-01T05:30:57;22.73;;;11.93;;
16579;SDS011;8402;51.466;6.806;2023-08-01T05:33:27;21.60;;;11.93;;
16579;SDS011;8402;51.466;6.806;2023-08-01T05:36:00;28.80;;;13.30;;
16579;SDS011;8402;51.466;6.806;2023-08-01T05:38:33;26.13;;;13.40;;
16579;SDS011;8402;51.466;6.806;2023-08-01T05:41:03;28.17;;;14.10;;
16579;SDS011;8402;51.466;6.806;2023-08-01T05:43:32;23.40;;;13.23;;
16579;SDS011;8402;51.466;6.806;2023-08-01T05:46:02;28.73;;;13.20;;
16579;SDS011;8402;51.466;6.806;2023-08-01T05:48:32;27.10;;;14.00;;
16579;SDS011;8402;51.466;6.806;2023-08-01T05:51:02;27.45;;;13.40;;
16579;SDS011;8402;51.466;6.806;2023-08-01T05:53:35;25.87;;;13.30;;
16579;SDS011;8402;51.466;6.806;2023-08-01T05:56:05;27.30;;;13.03;;
16579;SDS011;8402;51.466;6.806;2023-08-01T05:58:35;27.55;;;13.32;;
16579;SDS011;8402;51.466;6.806;2023-08-01T06:01:05;25.90;;;12.93;;
16579;SDS011;8402;51.466;6.806;2023-08-01T06:03:35;29.43;;;13.47;;
16579;SDS011;8402;51.466;6.806;2023-08-01T06:06:05;24.73;;;12.23;;
16579;SDS011;8402;51.466;6.806;2023-08-01T06:08:38;22.97;;;13.00;;
16579;SDS011;8402;51.466;6.806;2023-08-01T06:11:08;20.73;;;12.53;;
16579;SDS011;8402;51.466;6.806;2023-08-01T06:13:37;30.30;;;13.20;;
16579;SDS011;8402;51.466;6.806;2023-08-01T06:16:07;21.80;;;12.52;;
16579;SDS011;8402;51.466;6.806;2023-08-01T06:18:37;23.20;;;12.10;;
16579;SDS011;8402;51.466;6.806;2023-08-01T06:21:07;24.48;;;12.13;;
16579;SDS011;8402;51.466;6.806;2023-08-01T06:23:40;26.67;;;12.73;;
16579;SDS011;8402;51.466;6.806;2023-08-01T06:26:10;21.13;;;12.50;;
16579;SDS011;8402;51.466;6.806;2023-08-01T06:28:41;24.80;;;12.20;;
16579;SDS011;8402;51.466;6.806;2023-08-01T06:31:11;27.87;;;12.20;;
16579;SDS011;8402;51.466;6.806;2023-08-01T06:33:41;21.93;;;11.77;;
16579;SDS011;8402;51.466;6.806;2023-08-01T06:36:11;26.60;;;12.47;;
16579;SDS011;8402;51.466;6.806;2023-08-01T06:38:45;25.83;;;12.43;;
16579;SDS011;8402;51.466;6.806;2023-08-01T06:41:15;22.93;;;12.93;;
16579;SDS011;8402;51.466;6.806;2023-08-01T06:43:45;28.77;;;13.87;;
16579;SDS011;8402;51.466;6.806;2023-08-01T06:46:15;25.63;;;12.90;;
16579;SDS011;8402;51.466;6.806;2023-08-01T06:48:45;33.55;;;14.05;;
16579;SDS011;8402;51.466;6.806;2023-08-01T06:51:15;22.37;;;11.90;;
16579;SDS011;8402;51.466;6.806;2023-08-01T06:53:47;24.77;;;12.00;;
16579;SDS011;8402;51.466;6.806;2023-08-01T06:56:17;21.90;;;11.47;;
16579;SDS011;8402;51.466;6.806;2023-08-01T06:58:47;22.03;;;11.03;;
16579;SDS011;8402;51.466;6.806;2023-08-01T07:01:17;17.40;;;8.98;;
16579;SDS011;8402;51.466;6.806;2023-08-01T07:03:49;15.87;;;9.50;;
16579;SDS011;8402;51.466;6.806;2023-08-01T07:06:19;19.60;;;8.77;;
16579;SDS011;8402;51.466;6.806;2023-08-01T07:08:52;17.35;;;9.55;;
16579;SDS011;8402;51.466;6.806;2023-08-01T07:11:24;18.27;;;9.52;;
16579;SDS011;8402;51.466;6.806;2023-08-01T07:13:54;21.47;;;9.77;;
16579;SDS011;8402;51.466;6.806;2023-08-01T07:16:24;17.40;;;8.80;;
16579;SDS011;8402;51.466;6.806;2023-08-01T07:18:54;21.87;;;9.93;;
16579;SDS011;8402;51.466;6.806;2023-08-01T07:21:24;17.95;;;8.93;;
16579;SDS011;8402;51.466;6.806;2023-08-01T07:23:58;15.27;;;7.97;;
16579;SDS011;8402;51.466;6.806;2023-08-01T07:26:28;15.68;;;8.73;;
16579;SDS011;8402;51.466;6.806;2023-08-01T07:28:58;17.55;;;8.13;;
16579;SDS011;8402;51.466;6.806;2023-08-01T07:31:27;17.03;;;8.20;;
16579;SDS011;8402;51.466;6.806;2023-08-01T07:33:57;16.80;;;8.65;;
16579;SDS011;8402;51.466;6.806;2023-08-01T07:36:27;15.07;;;7.90;;
16579;SDS011;8402;51.466;6.806;2023-08-01T07:39:00;12.40;;;7.93;;
16579;SDS011;8402;51.466;6.806;2023-08-01T07:41:30;16.85;;;7.80;;
16579;SDS011;8402;51.466;6.806;2023-08-01T07:44:01;18.58;;;8.25;;
16579;SDS011;8402;51.466;6.806;2023-08-01T07:46:31;19.67;;;8.07;;
16579;SDS011;8402;51.466;6.806;2023-08-01T07:49:02;16.48;;;8.93;;
16579;SDS011;8402;51.466;6.806;2023-08-01T07:51:31;13.80;;;7.75;;
16579;SDS011;8402;51.466;6.806;2023-08-01T07:54:05;17.33;;;7.78;;
16579;SDS011;8402;51.466;6.806;2023-08-01T07:56:35;21.00;;;8.30;;
16579;SDS011;8402;51.466;6.806;2023-08-01T07:59:05;25.95;;;8.38;;
16579;SDS011;8402;51.466;6.806;2023-08-01T08:01:35;19.23;;;7.43;;
16579;SDS011;8402;51.466;6.806;2023-08-01T08:04:06;18.25;;;8.00;;
16579;SDS011;8402;51.466;6.806;2023-08-01T08:06:36;12.40;;;7.47;;
16579;SDS011;8402;51.466;6.806;2023-08-01T08:09:09;18.17;;;8.20;;
16579;SDS011;8402;51.466;6.806;2023-08-01T08:11:39;16.05;;;8.10;;
16579;SDS011;8402;51.466;6.806;2023-08-01T08:14:09;18.90;;;8.10;;
16579;SDS011;8402;51.466;6.806;2023-08-01T08:16:41;18.33;;;9.48;;
16579;SDS011;8402;51.466;6.806;2023-08-01T08:19:11;19.35;;;8.82;;
16579;SDS011;8402;51.466;6.806;2023-08-01T08:21:41;19.60;;;8.68;;
16579;SDS011;8402;51.466;6.806;2023-08-01T08:24:14;20.17;;;9.27;;
16579;SDS011;8402;51.466;6.806;2023-08-01T08:26:43;20.85;;;8.35;;
16579;SDS011;8402;51.466;6.806;2023-08-01T08:29:13;16.23;;;7.70;;
16579;SDS011;8402;51.466;6.806;2023-08-01T08:31:43;13.23;;;7.93;;
16579;SDS011;8402;51.466;6.806;2023-08-01T08:34:13;18.75;;;7.65;;
16579;SDS011;8402;51.466;6.806;2023-08-01T08:36:43;20.83;;;9.05;;
16579;SDS011;8402;51.466;6.806;2023-08-01T08:39:16;18.48;;;9.30;;
16579;SDS011;8402;51.466;6.806;2023-08-01T08:41:46;18.85;;;8.25;;
16579;SDS011;8402;51.466;6.806;2023-08-01T08:44:19;13.75;;;7.40;;
16579;SDS011;8402;51.466;6.806;2023-08-01T08:46:51;15.55;;;7.38;;
16579;SDS011;8402;51.466;6.806;2023-08-01T08:49:22;21.65;;;6.93;;
16579;SDS011;8402;51.466;6.806;2023-08-01T08:51:55;17.67;;;7.53;;
16579;SDS011;8402;51.466;6.806;2023-08-01T08:54:28;15.85;;;7.47;;
16579;SDS011;8402;51.466;6.806;2023-08-01T08:56:59;13.43;;;7.18;;
16579;SDS011;8402;51.466;6.806;2023-08-01T08:59:30;15.93;;;6.72;;
16579;SDS011;8402;51.466;6.806;2023-08-01T09:02:01;10.65;;;6.10;;
16579;SDS011;8402;51.466;6.806;2023-08-01T09:04:31;11.60;;;7.00;;
16579;SDS011;8402;51.466;6.806;2023-08-01T09:07:02;11.18;;;6.35;;
16579;SDS011;8402;51.466;6.806;2023-08-01T09:09:40;14.93;;;6.53;;
16579;SDS011;8402;51.466;6.806;2023-08-01T09:12:10;11.85;;;6.05;;
16579;SDS011;8402;51.466;6.806;2023-08-01T09:14:41;13.65;;;5.82;;
16579;SDS011;8402;51.466;6.806;2023-08-01T09:17:12;8.10;;;5.57;;
16579;SDS011;8402;51.466;6.806;2023-08-01T09:19:43;11.77;;;5.00;;
16579;SDS011;8402;51.466;6.806;2023-08-01T09:22:13;13.73;;;5.70;;
16579;SDS011;8402;51.466;6.806;2023-08-01T09:24:52;15.30;;;6.70;;
16579;SDS011;8402;51.466;6.806;2023-08-01T09:27:22;8.93;;;4.97;;
16579;SDS011;8402;51.466;6.806;2023-08-01T09:29:52;11.02;;;4.80;;
16579;SDS011;8402;51.466;6.806;2023-08-01T09:32:22;10.88;;;5.18;;
16579;SDS011;8402;51.466;6.806;2023-08-01T09:34:58;6.93;;;3.90;;
16579;SDS011;8402;51.466;6.806;2023-08-01T09:37:37;12.75;;;4.47;;
16579;SDS011;8402;51.466;6.806;2023-08-01T09:40:13;6.82;;;4.50;;
16579;SDS011;8402;51.466;6.806;2023-08-01T09:42:44;11.43;;;4.13;;
16579;SDS011;8402;51.466;6.806;2023-08-01T09:45:14;8.25;;;4.38;;
16579;SDS011;8402;51.466;6.806;2023-08-01T09:47:45;7.45;;;3.65;;
16579;SDS011;8402;51.466;6.806;2023-08-01T09:50:19;6.38;;;3.63;;
16579;SDS011;8402;51.466;6.806;2023-08-01T09:52:50;8.25;;;3.63;;
16579;SDS011;8402;51.466;6.806;2023-08-01T09:55:25;7.97;;;3.78;;
16579;SDS011;8402;51.466;6.806;2023-08-01T09:58:00;7.78;;;4.13;;
16579;SDS011;8402;51.466;6.806;2023-08-01T10:00:33;10.20;;;4.50;;
16579;SDS011;8402;51.466;6.806;2023-08-01T10:03:03;11.63;;;4.95;;
16579;SDS011;8402;51.466;6.806;2023-08-01T10:05:34;9.70;;;4.22;;
16579;SDS011;8402;51.466;6.806;2023-08-01T10:08:06;7.90;;;4.05;;
16579;SDS011;8402;51.466;6.806;2023-08-01T10:10:40;12.40;;;4.15;;
16579;SDS011;8402;51.466;6.806;2023-08-01T10:13:11;8.40;;;3.58;;
16579;SDS011;8402;51.466;6.806;2023-08-01T10:15:42;5.28;;;3.60;;
16579;SDS011;8402;51.466;6.806;2023-08-01T10:18:14;6.95;;;3.78;;
16579;SDS011;8402;51.466;6.806;2023-08-01T10:20:46;7.82;;;3.95;;
16579;SDS011;8402;51.466;6.806;2023-08-01T10:23:17;8.23;;;3.75;;
16579;SDS011;8402;51.466;6.806;2023-08-01T10:25:51;6.97;;;4.05;;
16579;SDS011;8402;51.466;6.806;2023-08-01T10:28:30;14.30;;;4.55;;
16579;SDS011;8402;51.466;6.806;2023-08-01T10:31:08;7.40;;;4.45;;
16579;SDS011;8402;51.466;6.806;2023-08-01T10:33:39;8.20;;;4.30;;
16579;SDS011;8402;51.466;6.806;2023-08-01T10:36:14;5.50;;;3.75;;
16579;SDS011;8402;51.466;6.806;2023-08-01T10:38:48;13.35;;;3.55;;
16579;SDS011;8402;51.466;6.806;2023-08-01T10:41:24;5.10;;;3.50;;
16579;SDS011;8402;51.466;6.806;2023-08-01T10:44:08;6.32;;;3.55;;
16579;SDS011;8402;51.466;6.806;2023-08-01T10:46:46;5.55;;;3.67;;
16579;SDS011;8402;51.466;6.806;2023-08-01T10:49:17;4.65;;;3.30;;
16579;SDS011;8402;51.466;6.806;2023-08-01T10:51:49;5.72;;;3.65;;
16579;SDS011;8402;51.466;6.806;2023-08-01T10:54:20;6.88;;;3.80;;
16579;SDS011;8402;51.466;6.806;2023-08-01T10:56:55;7.05;;;3.95;;
16579;SDS011;8402;51.466;6.806;2023-08-01T10:59:26;7.60;;;3.92;;
16579;SDS011;8402;51.466;6.806;2023-08-01T11:01:57;7.22;;;3.88;;
16579;SDS011;8402;51.466;6.806;2023-08-01T11:04:28;4.88;;;3.15;;
16579;SDS011;8402;51.466;6.806;2023-08-01T11:06:58;5.57;;;3.70;;
16579;SDS011;8402;51.466;6.806;2023-08-01T11:09:28;8.93;;;3.47;;
16579;SDS011;8402;51.466;6.806;2023-08-01T11:12:01;7.13;;;3.15;;
16579;SDS011;8402;51.466;6.806;2023-08-01T11:14:32;5.05;;;2.35;;
16579;SDS011;8402;51.466;6.806;2023-08-01T11:17:02;3.58;;;2.00;;
16579;SDS011;8402;51.466;6.806;2023-08-01T11:19:33;5.93;;;2.03;;
16579;SDS011;8402;51.466;6.806;2023-08-01T11:22:08;7.03;;;2.30;;
16579;SDS011;8402;51.466;6.806;2023-08-01T11:24:39;4.00;;;1.73;;
16579;SDS011;8402;51.466;6.806;2023-08-01T11:27:14;3.90;;;1.95;;
16579;SDS011;8402;51.466;6.806;2023-08-01T11:29:45;3.47;;;1.85;;
16579;SDS011;8402;51.466;6.806;2023-08-01T11:32:15;3.80;;;1.70;;
16579;SDS011;8402;51.466;6.806;2023-08-01T11:34:48;3.35;;;1.70;;
16579;SDS011;8402;51.466;6.806;2023-08-01T11:37:18;6.05;;;1.63;;
16579;SDS011;8402;51.466;6.806;2023-08-01T11:39:49;3.75;;;1.58;;
16579;SDS011;8402;51.466;6.806;2023-08-01T11:42:22;3.22;;;1.50;;
16579;SDS011;8402;51.466;6.806;2023-08-01T11:44:52;2.83;;;1.52;;
16579;SDS011;8402;51.466;6.806;2023-08-01T11:47:22;5.63;;;1.48;;
16579;SDS011;8402;51.466;6.806;2023-08-01T11:49:52;4.32;;;1.73;;
16579;SDS011;8402;51.466;6.806;2023-08-01T11:52:23;4.55;;;1.80;;
16579;SDS011;8402;51.466;6.806;2023-08-01T11:54:53;5.93;;;2.00;;
16579;SDS011;8402;51.466;6.806;2023-08-01T11:57:26;3.08;;;1.60;;
16579;SDS011;8402;51.466;6.806;2023-08-01T11:59:57;4.65;;;1.98;;
16579;SDS011;8402;51.466;6.806;2023-08-01T12:02:28;4.70;;;2.00;;
16579;SDS011;8402;51.466;6.806;2023-08-01T12:04:59;4.78;;;2.17;;
16579;SDS011;8402;51.466;6.806;2023-08-01T12:07:28;9.93;;;3.00;;
16579;SDS011;8402;51.466;6.806;2023-08-01T12:09:59;4.72;;;2.38;;
16579;SDS011;8402;51.466;6.806;2023-08-01T12:12:32;8.40;;;2.67;;
16579;SDS011;8402;51.466;6.806;2023-08-01T12:15:14;5.18;;;2.90;;
16579;SDS011;8402;51.466;6.806;2023-08-01T12:17:44;12.57;;;3.92;;
16579;SDS011;8402;51.466;6.806;2023-08-01T12:20:15;14.15;;;4.00;;
16579;SDS011;8402;51.466;6.806;2023-08-01T12:22:44;11.93;;;3.97;;
16579;SDS011;8402;51.466;6.806;2023-08-01T12:25:14;9.18;;;3.90;;
16579;SDS011;8402;51.466;6.806;2023-08-01T12:27:47;12.68;;;4.63;;
16579;SDS011;8402;51.466;6.806;2023-08-01T12:30:17;9.65;;;3.97;;
16579;SDS011;8402;51.466;6.806;2023-08-01T12:32:47;6.13;;;3.35;;
16579;SDS011;8402;51.466;6.806;2023-08-01T12:35:18;9.45;;;3.60;;
16579;SDS011;8402;51.466;6.806;2023-08-01T12:37:48;4.93;;;2.65;;
16579;SDS011;8402;51.466;6.806;2023-08-01T12:40:18;5.90;;;2.80;;
16579;SDS011;8402;51.466;6.806;2023-08-01T12:42:51;8.05;;;2.97;;
16579;SDS011;8402;51.466;6.806;2023-08-01T12:45:20;6.55;;;2.50;;
16579;SDS011;8402;51.466;6.806;2023-08-01T12:47:50;7.30;;;2.25;;
16579;SDS011;8402;51.466;6.806;2023-08-01T12:50:20;4.05;;;2.22;;
16579;SDS011;8402;51.466;6.806;2023-08-01T12:52:50;8.13;;;2.30;;
16579;SDS011;8402;51.466;6.806;2023-08-01T12:55:20;4.72;;;1.55;;
16579;SDS011;8402;51.466;6.806;2023-08-01T12:57:53;3.28;;;1.80;;
16579;SDS011;8402;51.466;6.806;2023-08-01T13:00:23;6.75;;;2.00;;
16579;SDS011;8402;51.466;6.806;2023-08-01T13:02:53;5.03;;;1.90;;
16579;SDS011;8402;51.466;6.806;2023-08-01T13:05:23;5.40;;;2.05;;
16579;SDS011;8402;51.466;6.806;2023-08-01T13:07:53;8.68;;;2.65;;
16579;SDS011;8402;51.466;6.806;2023-08-01T13:10:23;5.45;;;2.40;;
16579;SDS011;8402;51.466;6.806;2023-08-01T13:12:55;5.78;;;2.10;;
16579;SDS011;8402;51.466;6.806;2023-08-01T13:15:25;5.75;;;2.25;;
16579;SDS011;8402;51.466;6.806;2023-08-01T13:17:56;4.25;;;2.08;;
16579;SDS011;8402;51.466;6.806;2023-08-01T13:20:26;4.50;;;2.20;;
16579;SDS011;8402;51.466;6.806;2023-08-01T13:22:58;6.65;;;2.25;;
16579;SDS011;8402;51.466;6.806;2023-08-01T13:25:29;7.03;;;2.10;;
16579;SDS011;8402;51.466;6.806;2023-08-01T13:28:02;9.07;;;2.50;;
16579;SDS011;8402;51.466;6.806;2023-08-01T13:30:32;5.47;;;2.10;;
16579;SDS011;8402;51.466;6.806;2023-08-01T13:33:02;3.53;;;2.00;;
16579;SDS011;8402;51.466;6.806;2023-08-01T13:35:32;15.35;;;2.35;;
16579;SDS011;8402;51.466;6.806;2023-08-01T13:38:02;4.70;;;1.88;;
16579;SDS011;8402;51.466;6.806;2023-08-01T13:40:33;5.63;;;2.22;;
16579;SDS011;8402;51.466;6.806;2023-08-01T13:43:07;6.95;;;2.05;;
16579;SDS011;8402;51.466;6.806;2023-08-01T13:45:36;5.00;;;2.00;;
16579;SDS011;8402;51.466;6.806;2023-08-01T13:48:06;4.78;;;1.88;;
16579;SDS011;8402;51.466;6.806;2023-08-01T13:50:37;5.65;;;1.83;;
16579;SDS011;8402;51.466;6.806;2023-08-01T13:53:06;5.05;;;1.98;;
16579;SDS011;8402;51.466;6.806;2023-08-01T13:55:38;4.47;;;1.90;;
16579;SDS011;8402;51.466;6.806;2023-08-01T13:58:11;3.72;;;2.03;;
16579;SDS011;8402;51.466;6.806;2023-08-01T14:00:40;4.57;;;2.00;;
16579;SDS011;8402;51.466;6.806;2023-08-01T14:03:10;6.50;;;2.08;;
16579;SDS011;8402;51.466;6.806;2023-08-01T14:05:40;3.47;;;1.80;;
16579;SDS011;8402;51.466;6.806;2023-08-01T14:08:10;4.22;;;1.70;;
16579;SDS011;8402;51.466;6.806;2023-08-01T14:10:40;5.95;;;1.58;;
16579;SDS011;8402;51.466;6.806;2023-08-01T14:13:14;3.80;;;1.60;;
16579;SDS011;8402;51.466;6.806;2023-08-01T14:15:44;4.32;;;1.80;;
16579;SDS011;8402;51.466;6.806;2023-08-01T14:18:14;3.13;;;1.58;;
16579;SDS011;8402;51.466;6.806;2023-08-01T14:20:44;4.80;;;1.70;;
16579;SDS011;8402;51.466;6.806;2023-08-01T14:23:14;6.30;;;1.67;;
16579;SDS011;8402;51.466;6.806;2023-08-01T14:25:44;4.32;;;1.80;;
16579;SDS011;8402;51.466;6.806;2023-08-01T14:28:17;4.65;;;1.48;;
16579;SDS011;8402;51.466;6.806;2023-08-01T14:30:46;3.20;;;1.80;;
16579;SDS011;8402;51.466;6.806;2023-08-01T14:33:16;7.07;;;2.05;;
16579;SDS011;8402;51.466;6.806;2023-08-01T14:35:47;4.88;;;2.38;;
16579;SDS011;8402;51.466;6.806;2023-08-01T14:38:17;7.15;;;1.80;;
16579;SDS011;8402;51.466;6.806;2023-08-01T14:40:47;3.15;;;1.70;;
16579;SDS011;8402;51.466;6.806;2023-08-01T14:43:37;5.97;;;1.50;;
16579;SDS011;8402;51.466;6.806;2023-08-01T14:46:06;6.40;;;2.10;;
16579;SDS011;8402;51.466;6.806;2023-08-01T14:48:36;5.55;;;1.85;;
16579;SDS011;8402;51.466;6.806;2023-08-01T14:51:07;7.20;;;2.05;;
16579;SDS011;8402;51.466;6.806;2023-08-01T14:53:37;9.07;;;2.22;;
16579;SDS011;8402;51.466;6.806;2023-08-01T14:56:06;3.78;;;1.70;;
16579;SDS011;8402;51.466;6.806;2023-08-01T14:58:40;3.60;;;1.90;;
16579;SDS011;8402;51.466;6.806;2023-08-01T15:01:13;5.90;;;1.70;;
16579;SDS011;8402;51.466;6.806;2023-08-01T15:03:45;2.60;;;1.73;;
16579;SDS011;8402;51.466;6.806;2023-08-01T15:06:15;6.63;;;2.08;;
16579;SDS011;8402;51.466;6.806;2023-08-01T15:08:45;5.10;;;1.95;;
16579;SDS011;8402;51.466;6.806;2023-08-01T15:11:14;3.10;;;1.48;;
16579;SDS011;8402;51.466;6.806;2023-08-01T15:13:47;6.82;;;1.70;;
16579;SDS011;8402;51.466;6.806;2023-08-01T15:16:17;3.65;;;1.50;;